createdAt,value
2023-05-10T00:01:10.224Z,11.62
2023-05-10T00:03:37.419Z,11.61
2023-05-10T00:06:04.645Z,11.60
2023-05-10T00:08:31.819Z,11.59
2023-05-10T00:10:58.970Z,11.59
2023-05-10T00:13:26.332Z,11.60
2023-05-10T00:15:53.540Z,11.60
2023-05-10T00:18:20.726Z,11.60
2023-05-10T00:20:48.039Z,11.59
2023-05-10T00:23:15.164Z,11.58
2023-05-10T00:25:42.236Z,11.52
2023-05-10T00:28:09.356Z,11.50
2023-05-10T00:30:38.274Z,11.48
2023-05-10T00:33:05.409Z,11.44
2023-05-10T00:35:32.554Z,11.42
2023-05-10T00:37:59.738Z,11.43
2023-05-10T00:40:26.985Z,11.43
2023-05-10T00:42:58.280Z,11.43
2023-05-10T00:45:25.973Z,11.42
2023-05-10T00:47:56.253Z,11.40
2023-05-10T00:50:24.657Z,11.39
2023-05-10T00:52:51.796Z,11.39
2023-05-10T00:55:19.602Z,11.38
2023-05-10T00:57:46.793Z,11.38
2023-05-10T01:00:19.085Z,11.35
2023-05-10T01:02:47.506Z,11.32
2023-05-10T01:05:15.041Z,11.26
2023-05-10T01:07:42.308Z,11.22
2023-05-10T01:10:11.593Z,11.19
2023-05-10T01:12:41.950Z,11.18
2023-05-10T01:15:10.210Z,11.16
2023-05-10T01:17:40.714Z,11.13
2023-05-10T01:20:10.440Z,11.11
2023-05-10T01:23:16.017Z,11.11
2023-05-10T01:26:22.266Z,11.13
2023-05-10T01:29:07.766Z,11.11
2023-05-10T01:32:01.169Z,11.11
2023-05-10T01:34:43.725Z,11.10
2023-05-10T01:37:19.564Z,11.09
2023-05-10T01:40:19.752Z,11.08
2023-05-10T01:42:52.929Z,11.05
2023-05-10T01:45:30.151Z,11.04
2023-05-10T01:48:08.486Z,11.02
2023-05-10T01:50:37.823Z,11.02
2023-05-10T01:53:09.487Z,11.00
2023-05-10T01:55:44.228Z,11.00
2023-05-10T01:58:16.125Z,10.97
2023-05-10T02:00:48.518Z,10.93
2023-05-10T02:03:17.252Z,10.89
2023-05-10T02:05:46.619Z,10.88
2023-05-10T02:08:15.777Z,10.87
2023-05-10T02:10:46.059Z,10.84
2023-05-10T02:13:15.279Z,10.83
2023-05-10T02:15:44.036Z,10.80
2023-05-10T02:18:13.823Z,10.77
2023-05-10T02:20:41.490Z,10.76
2023-05-10T02:23:10.146Z,10.75
2023-05-10T02:25:39.923Z,10.73
2023-05-10T02:28:08.487Z,10.72
2023-05-10T02:30:37.821Z,10.71
2023-05-10T02:33:06.621Z,10.70
2023-05-10T02:35:35.061Z,10.69
2023-05-10T02:38:03.296Z,10.70
2023-05-10T02:40:32.029Z,10.69
2023-05-10T02:43:00.500Z,10.66
2023-05-10T02:45:32.243Z,10.64
2023-05-10T02:48:00.642Z,10.60
2023-05-10T02:50:30.133Z,10.59
2023-05-10T02:53:03.181Z,10.56
2023-05-10T02:55:37.982Z,10.55
2023-05-10T02:58:05.398Z,10.53
2023-05-10T03:00:32.691Z,10.52
2023-05-10T03:02:59.954Z,10.49
2023-05-10T03:05:27.634Z,10.46
2023-05-10T03:07:55.484Z,10.43
2023-05-10T03:10:29.155Z,10.42
2023-05-10T03:13:03.035Z,10.42
2023-05-10T03:15:39.125Z,10.44
2023-05-10T03:18:12.137Z,10.44
2023-05-10T03:20:44.629Z,10.43
2023-05-10T03:23:23.759Z,10.43
2023-05-10T03:25:52.018Z,10.45
2023-05-10T03:28:19.898Z,10.46
2023-05-10T03:30:48.241Z,10.45
2023-05-10T03:33:15.556Z,10.45
2023-05-10T03:35:46.884Z,10.42
2023-05-10T03:38:14.403Z,10.36
2023-05-10T03:40:41.789Z,10.35
2023-05-10T03:43:09.213Z,10.37
2023-05-10T03:45:36.623Z,10.39
2023-05-10T03:48:04.203Z,10.41
2023-05-10T03:50:31.283Z,10.43
2023-05-10T03:52:58.706Z,10.43
2023-05-10T03:55:25.817Z,10.44
2023-05-10T03:57:54.882Z,10.45
2023-05-10T04:00:22.501Z,10.46
2023-05-10T04:02:50.739Z,10.48
2023-05-10T04:05:20.225Z,10.45
2023-05-10T04:07:48.267Z,10.42
2023-05-10T04:10:15.793Z,10.39
2023-05-10T04:12:43.295Z,10.38
2023-05-10T04:15:10.772Z,10.38
2023-05-10T04:17:38.701Z,10.39
2023-05-10T04:20:06.673Z,10.38
2023-05-10T04:22:33.848Z,10.40
2023-05-10T04:25:00.843Z,10.41
2023-05-10T04:27:28.204Z,10.44
2023-05-10T04:29:55.421Z,10.47
2023-05-10T04:32:22.593Z,10.47
2023-05-10T04:34:50.119Z,10.48
2023-05-10T04:37:17.162Z,10.50
2023-05-10T04:39:44.415Z,10.52
2023-05-10T04:42:12.466Z,10.53
2023-05-10T04:44:39.693Z,10.54
2023-05-10T04:47:06.838Z,10.55
2023-05-10T04:49:33.927Z,10.55
2023-05-10T04:52:01.003Z,10.57
2023-05-10T04:54:28.124Z,10.60
2023-05-10T04:56:55.295Z,10.61
2023-05-10T04:59:22.386Z,10.64
2023-05-10T05:01:49.558Z,10.67
2023-05-10T05:04:16.888Z,10.70
2023-05-10T05:06:44.223Z,10.73
2023-05-10T05:09:11.301Z,10.77
2023-05-10T05:11:38.315Z,10.83
2023-05-10T05:14:05.352Z,10.88
2023-05-10T05:16:33.221Z,10.92
2023-05-10T05:19:00.964Z,10.92
2023-05-10T05:21:28.192Z,10.97
2023-05-10T05:23:55.423Z,11.06
2023-05-10T05:26:22.496Z,11.11
2023-05-10T05:28:51.053Z,11.20
2023-05-10T05:31:18.890Z,11.29
2023-05-10T05:33:46.119Z,11.38
2023-05-10T05:36:13.348Z,11.48
2023-05-10T05:38:40.417Z,11.60
2023-05-10T05:41:07.674Z,11.72
2023-05-10T05:43:36.730Z,11.82
2023-05-10T05:46:05.359Z,11.93
2023-05-10T05:48:32.719Z,12.03
2023-05-10T05:51:00.275Z,12.13
2023-05-10T05:53:27.566Z,12.26
2023-05-10T05:55:56.311Z,12.42
2023-05-10T05:58:23.882Z,12.58
2023-05-10T06:00:51.610Z,12.65
2023-05-10T06:03:19.769Z,12.74
2023-05-10T06:05:47.488Z,12.86
2023-05-10T06:08:14.620Z,12.96
2023-05-10T06:10:41.729Z,13.06
2023-05-10T06:13:08.922Z,13.14
2023-05-10T06:15:36.042Z,13.19
2023-05-10T06:18:03.326Z,13.30
2023-05-10T06:20:32.537Z,13.43
2023-05-10T06:23:00.058Z,13.52
2023-05-10T06:25:27.250Z,13.57
2023-05-10T06:27:58.344Z,13.67
2023-05-10T06:30:28.543Z,13.77
2023-05-10T06:32:56.529Z,13.88
2023-05-10T06:35:23.820Z,13.99
2023-05-10T06:37:51.914Z,14.08
2023-05-10T06:40:19.706Z,14.21
2023-05-10T06:42:47.762Z,14.31
2023-05-10T06:45:16.201Z,14.40
2023-05-10T06:47:43.951Z,14.56
2023-05-10T06:50:12.606Z,14.66
2023-05-10T06:52:40.221Z,14.75
2023-05-10T06:55:07.918Z,14.84
2023-05-10T06:57:35.128Z,14.94
2023-05-10T07:00:05.209Z,15.03
2023-05-10T07:02:32.584Z,15.06
2023-05-10T07:05:02.502Z,15.07
2023-05-10T07:07:30.859Z,15.16
2023-05-10T07:09:58.769Z,15.24
2023-05-10T07:12:26.512Z,15.34
2023-05-10T07:14:53.796Z,15.45
2023-05-10T07:17:21.171Z,15.60
2023-05-10T07:19:48.369Z,15.73
2023-05-10T07:22:17.734Z,15.80
2023-05-10T07:24:44.926Z,15.75
2023-05-10T07:27:12.080Z,15.83
2023-05-10T07:29:39.082Z,15.93
2023-05-10T07:32:07.426Z,16.02
2023-05-10T07:34:34.526Z,16.14
2023-05-10T07:37:01.728Z,16.22
2023-05-10T07:39:28.920Z,16.28
2023-05-10T07:41:56.866Z,16.26
2023-05-10T07:44:24.592Z,16.29
2023-05-10T07:46:51.899Z,16.32
2023-05-10T07:49:19.107Z,16.37
2023-05-10T07:51:46.355Z,16.49
2023-05-10T07:54:13.823Z,16.54
2023-05-10T07:56:45.822Z,16.54
2023-05-10T07:59:16.710Z,16.58
2023-05-10T08:01:44.386Z,16.58
2023-05-10T08:04:12.613Z,16.57
2023-05-10T08:06:40.738Z,16.59
2023-05-10T08:09:07.960Z,16.65
2023-05-10T08:11:35.362Z,16.70
2023-05-10T08:14:02.599Z,16.67
2023-05-10T08:16:30.104Z,16.71
2023-05-10T08:18:57.489Z,16.78
2023-05-10T08:21:24.743Z,16.90
2023-05-10T08:23:51.881Z,16.95
2023-05-10T08:26:18.995Z,16.97
2023-05-10T08:28:46.057Z,17.04
2023-05-10T08:31:13.490Z,17.02
2023-05-10T08:33:42.164Z,17.04
2023-05-10T08:36:10.132Z,17.06
2023-05-10T08:38:38.949Z,17.07
2023-05-10T08:41:07.232Z,17.11
2023-05-10T08:43:37.157Z,17.20
2023-05-10T08:46:08.837Z,17.31
2023-05-10T08:48:36.627Z,17.39
2023-05-10T08:51:05.368Z,17.44
2023-05-10T08:53:36.501Z,17.54
2023-05-10T08:56:03.779Z,17.60
2023-05-10T08:58:31.954Z,17.59
2023-05-10T09:01:00.443Z,17.66
2023-05-10T09:03:27.676Z,17.78
2023-05-10T09:05:56.875Z,17.88
2023-05-10T09:08:27.998Z,17.97
2023-05-10T09:10:58.413Z,18.02
2023-05-10T09:13:25.849Z,18.10
2023-05-10T09:15:54.128Z,18.03
2023-05-10T09:18:21.374Z,17.88
2023-05-10T09:20:49.935Z,17.82
2023-05-10T09:23:17.102Z,17.86
2023-05-10T09:25:44.286Z,17.92
2023-05-10T09:28:12.286Z,17.98
2023-05-10T09:30:39.856Z,17.99
2023-05-10T09:33:07.092Z,17.98
2023-05-10T09:35:34.786Z,17.96
2023-05-10T09:38:05.971Z,18.03
2023-05-10T09:40:33.848Z,18.07
2023-05-10T09:43:07.927Z,18.18
2023-05-10T09:45:38.531Z,18.33
2023-05-10T09:48:07.154Z,18.41
2023-05-10T09:50:35.292Z,18.45
2023-05-10T09:53:04.924Z,18.51
2023-05-10T09:55:45.987Z,18.59
2023-05-10T09:58:14.609Z,18.54
2023-05-10T10:00:46.177Z,18.54
2023-05-10T10:03:15.919Z,18.56
2023-05-10T10:05:44.697Z,18.59
2023-05-10T10:08:13.402Z,18.59
2023-05-10T10:10:41.773Z,18.65
2023-05-10T10:13:09.521Z,18.80
2023-05-10T10:15:37.140Z,18.99
2023-05-10T10:18:06.243Z,19.02
2023-05-10T10:20:33.389Z,19.04
2023-05-10T10:23:00.590Z,19.08
2023-05-10T10:25:27.805Z,19.11
2023-05-10T10:27:55.126Z,19.20
2023-05-10T10:31:02.611Z,19.35
2023-05-10T10:33:55.549Z,19.52
2023-05-10T10:36:22.805Z,19.66
2023-05-10T10:38:49.916Z,19.70
2023-05-10T10:41:37.093Z,19.75
2023-05-10T10:44:30.459Z,19.73
2023-05-10T10:47:13.243Z,19.65
2023-05-10T10:50:04.864Z,19.63
2023-05-10T10:52:39.526Z,19.70
2023-05-10T10:55:07.784Z,19.82
2023-05-10T10:58:02.087Z,19.94
2023-05-10T11:00:33.165Z,20.04
2023-05-10T11:03:03.735Z,20.10
2023-05-10T11:05:34.005Z,20.20
2023-05-10T11:08:07.422Z,20.19
2023-05-10T11:10:34.740Z,20.11
2023-05-10T11:13:06.879Z,20.19
2023-05-10T11:15:36.677Z,20.29
2023-05-10T11:18:22.718Z,20.33
2023-05-10T11:20:54.065Z,20.36
2023-05-10T11:23:22.147Z,20.35
2023-05-10T11:25:51.132Z,20.44
2023-05-10T11:28:20.445Z,20.54
2023-05-10T11:30:48.260Z,20.64
2023-05-10T11:33:20.541Z,20.73
2023-05-10T11:35:48.041Z,20.78
2023-05-10T11:38:15.320Z,20.88
2023-05-10T11:40:42.975Z,20.91
2023-05-10T11:43:11.751Z,20.94
2023-05-10T11:45:39.347Z,20.90
2023-05-10T11:48:06.522Z,20.81
2023-05-10T11:50:33.897Z,20.72
2023-05-10T11:53:01.413Z,20.61
2023-05-10T11:55:28.525Z,20.50
2023-05-10T11:57:56.025Z,20.51
2023-05-10T12:00:23.200Z,20.60
2023-05-10T12:02:51.147Z,20.69
2023-05-10T12:05:18.832Z,20.74
2023-05-10T12:07:46.021Z,20.70
2023-05-10T12:10:19.344Z,20.67
2023-05-10T12:12:50.737Z,20.66
2023-05-10T12:15:22.947Z,20.63
2023-05-10T12:17:51.609Z,20.56
2023-05-10T12:20:21.153Z,20.56
2023-05-10T12:22:51.217Z,20.56
2023-05-10T12:25:19.401Z,20.52
2023-05-10T12:27:50.712Z,20.55
2023-05-10T12:30:22.398Z,20.53
2023-05-10T12:32:49.462Z,20.45
2023-05-10T12:35:17.520Z,20.32
2023-05-10T12:37:44.761Z,20.28
2023-05-10T12:40:12.998Z,20.24
2023-05-10T12:42:41.174Z,20.25
2023-05-10T12:45:10.005Z,20.33
2023-05-10T12:47:37.436Z,20.36
2023-05-10T12:50:05.725Z,20.32
2023-05-10T12:52:33.620Z,20.29
2023-05-10T12:55:01.246Z,20.27
2023-05-10T12:57:28.927Z,20.29
2023-05-10T12:59:56.794Z,20.34
2023-05-10T13:02:24.329Z,20.36
2023-05-10T13:04:51.906Z,20.38
2023-05-10T13:07:19.165Z,20.36
2023-05-10T13:09:46.497Z,20.29
2023-05-10T13:12:14.057Z,20.27
2023-05-10T13:14:41.808Z,20.17
2023-05-10T13:17:09.181Z,20.09
2023-05-10T13:19:36.449Z,20.00
2023-05-10T13:22:04.144Z,19.93
2023-05-10T13:24:31.409Z,19.91
2023-05-10T13:26:59.543Z,19.86
2023-05-10T13:29:27.105Z,19.85
2023-05-10T13:31:54.461Z,19.79
2023-05-10T13:34:25.320Z,19.74
2023-05-10T13:36:54.169Z,19.71
2023-05-10T13:39:21.802Z,19.71
2023-05-10T13:41:49.207Z,19.67
2023-05-10T13:44:16.617Z,19.61
2023-05-10T13:46:44.626Z,19.60
2023-05-10T13:49:11.976Z,19.59
2023-05-10T13:51:39.421Z,19.59
2023-05-10T13:54:06.887Z,19.61
2023-05-10T13:56:34.570Z,19.64
2023-05-10T13:59:02.057Z,19.66
2023-05-10T14:01:29.271Z,19.68
2023-05-10T14:03:56.571Z,19.69
2023-05-10T14:06:23.791Z,19.68
2023-05-10T14:08:50.971Z,19.61
2023-05-10T14:11:18.611Z,19.56
2023-05-10T14:13:45.755Z,19.53
2023-05-10T14:16:13.166Z,19.47
2023-05-10T14:18:41.003Z,19.40
2023-05-10T14:21:08.184Z,19.32
2023-05-10T14:23:35.384Z,19.24
2023-05-10T14:26:02.905Z,19.15
2023-05-10T14:28:30.518Z,19.08
2023-05-10T14:30:57.805Z,19.09
2023-05-10T14:33:25.158Z,19.09
2023-05-10T14:35:52.335Z,19.09
2023-05-10T14:38:19.548Z,19.09
2023-05-10T14:40:46.757Z,19.07
2023-05-10T14:43:13.882Z,19.03
2023-05-10T14:45:41.480Z,18.97
2023-05-10T14:48:12.311Z,18.90
2023-05-10T14:50:40.626Z,18.84
2023-05-10T14:53:08.116Z,18.79
2023-05-10T14:55:36.303Z,18.74
2023-05-10T14:58:04.181Z,18.70
2023-05-10T15:00:32.279Z,18.66
2023-05-10T15:03:00.188Z,18.60
2023-05-10T15:05:27.760Z,18.59
2023-05-10T15:07:55.810Z,18.58
2023-05-10T15:10:23.563Z,18.55
2023-05-10T15:12:51.480Z,18.51
2023-05-10T15:15:19.021Z,18.45
2023-05-10T15:17:47.070Z,18.40
2023-05-10T15:20:14.609Z,18.36
2023-05-10T15:22:42.212Z,18.33
2023-05-10T15:25:09.554Z,18.29
2023-05-10T15:27:36.779Z,18.26
2023-05-10T15:30:04.325Z,18.24
2023-05-10T15:32:31.478Z,18.23
2023-05-10T15:34:59.320Z,18.21
2023-05-10T15:37:27.004Z,18.16
2023-05-10T15:39:55.809Z,18.12
2023-05-10T15:42:24.610Z,18.07
2023-05-10T15:44:52.400Z,18.03
2023-05-10T15:47:19.541Z,17.98
2023-05-10T15:49:47.403Z,17.96
2023-05-10T15:52:18.087Z,17.93
2023-05-10T15:54:45.567Z,17.91
2023-05-10T15:57:12.849Z,17.87
2023-05-10T15:59:41.790Z,17.84
2023-05-10T16:02:12.939Z,17.81
2023-05-10T16:04:40.296Z,17.79
2023-05-10T16:07:07.575Z,17.76
2023-05-10T16:09:34.821Z,17.72
2023-05-10T16:12:03.475Z,17.69
2023-05-10T16:14:30.863Z,17.66
2023-05-10T16:16:58.229Z,17.62
2023-05-10T16:19:27.192Z,17.58
2023-05-10T16:21:57.210Z,17.54
2023-05-10T16:24:26.609Z,17.50
2023-05-10T16:26:53.888Z,17.46
2023-05-10T16:29:21.722Z,17.44
2023-05-10T16:31:48.840Z,17.40
2023-05-10T16:34:24.440Z,17.36
2023-05-10T16:36:51.756Z,17.31
2023-05-10T16:39:19.047Z,17.28
2023-05-10T16:41:46.664Z,17.25
2023-05-10T16:44:14.548Z,17.21
2023-05-10T16:46:42.008Z,17.17
2023-05-10T16:49:10.158Z,17.14
2023-05-10T16:51:38.067Z,17.10
2023-05-10T16:54:05.381Z,17.07
2023-05-10T16:56:33.017Z,17.05
2023-05-10T16:59:00.204Z,17.03
2023-05-10T17:01:27.892Z,16.99
2023-05-10T17:03:55.330Z,16.96
2023-05-10T17:06:22.650Z,16.93
2023-05-10T17:08:49.894Z,16.90
2023-05-10T17:11:17.251Z,16.87
2023-05-10T17:13:44.450Z,16.84
2023-05-10T17:16:12.575Z,16.81
2023-05-10T17:18:42.113Z,16.77
2023-05-10T17:21:10.168Z,16.74
2023-05-10T17:23:37.529Z,16.71
2023-05-10T17:26:06.419Z,16.68
2023-05-10T17:28:36.633Z,16.66
2023-05-10T17:31:04.464Z,16.63
2023-05-10T17:33:32.311Z,16.60
2023-05-10T17:35:59.600Z,16.57
2023-05-10T17:38:26.779Z,16.54
2023-05-10T17:40:55.462Z,16.52
2023-05-10T17:43:23.667Z,16.51
2023-05-10T17:45:51.325Z,16.48
2023-05-10T17:48:18.717Z,16.45
2023-05-10T17:50:45.943Z,16.42
2023-05-10T17:53:13.170Z,16.39
2023-05-10T17:55:41.800Z,16.36
2023-05-10T17:58:19.853Z,16.33
2023-05-10T18:00:47.022Z,16.29
2023-05-10T18:03:16.665Z,16.24
2023-05-10T18:05:45.781Z,16.20
2023-05-10T18:08:15.968Z,16.17
2023-05-10T18:10:43.569Z,16.14
2023-05-10T18:13:10.686Z,16.10
2023-05-10T18:15:38.711Z,16.05
2023-05-10T18:18:06.488Z,16.01
2023-05-10T18:20:34.132Z,15.96
2023-05-10T18:23:01.493Z,15.92
2023-05-10T18:25:28.704Z,15.87
2023-05-10T18:27:56.326Z,15.81
2023-05-10T18:30:23.746Z,15.77
2023-05-10T18:32:51.371Z,15.73
2023-05-10T18:35:18.995Z,15.69
2023-05-10T18:37:46.316Z,15.65
2023-05-10T18:40:14.854Z,15.60
2023-05-10T18:42:42.107Z,15.57
2023-05-10T18:45:09.464Z,15.53
2023-05-10T18:47:39.172Z,15.48
2023-05-10T18:50:08.856Z,15.45
2023-05-10T18:52:37.981Z,15.42
2023-05-10T18:55:06.567Z,15.38
2023-05-10T18:57:40.050Z,15.34
2023-05-10T19:00:12.429Z,15.30
2023-05-10T19:02:40.649Z,15.26
2023-05-10T19:05:08.944Z,15.23
2023-05-10T19:07:37.524Z,15.18
2023-05-10T19:10:06.412Z,15.14
2023-05-10T19:12:34.118Z,15.10
2023-05-10T19:15:01.300Z,15.07
2023-05-10T19:17:31.263Z,15.04
2023-05-10T19:20:00.115Z,14.99
2023-05-10T19:25:01.002Z,14.93
2023-05-10T19:27:28.401Z,14.90
2023-05-10T19:29:56.763Z,14.88
2023-05-10T19:32:25.265Z,14.85
2023-05-10T19:34:52.859Z,14.86
2023-05-10T19:37:20.442Z,14.84
2023-05-10T19:39:47.505Z,14.82
2023-05-10T19:42:14.698Z,14.79
2023-05-10T19:44:41.704Z,14.76
2023-05-10T19:47:09.368Z,14.72
2023-05-10T19:49:36.620Z,14.70
2023-05-10T19:52:07.986Z,14.67
2023-05-10T19:54:35.022Z,14.63
2023-05-10T19:57:02.144Z,14.61
2023-05-10T19:59:29.288Z,14.58
2023-05-10T20:01:56.353Z,14.54
2023-05-10T20:04:23.558Z,14.50
2023-05-10T20:06:50.628Z,14.45
2023-05-10T20:09:17.741Z,14.42
2023-05-10T20:11:44.807Z,14.39
2023-05-10T20:14:11.990Z,14.35
2023-05-10T20:16:39.092Z,14.32
2023-05-10T20:19:06.429Z,14.29
2023-05-10T20:21:33.646Z,14.25
2023-05-10T20:24:00.719Z,14.23
2023-05-10T20:26:27.794Z,14.20
2023-05-10T20:28:54.826Z,14.16
2023-05-10T20:31:22.064Z,14.14
2023-05-10T20:33:49.225Z,14.13
2023-05-10T20:36:16.848Z,14.10
2023-05-10T20:38:43.897Z,14.08
2023-05-10T20:41:11.000Z,14.04
2023-05-10T20:43:38.045Z,14.02
2023-05-10T20:46:05.619Z,14.01
2023-05-10T20:48:33.173Z,14.00
2023-05-10T20:51:02.172Z,13.98
2023-05-10T20:53:30.016Z,13.97
2023-05-10T20:55:57.082Z,13.95
2023-05-10T20:58:24.146Z,13.92
2023-05-10T21:00:51.301Z,13.90
2023-05-10T21:03:18.373Z,13.87
2023-05-10T21:05:45.497Z,13.85
2023-05-10T21:08:12.601Z,13.84
2023-05-10T21:10:39.633Z,13.82
2023-05-10T21:13:06.737Z,13.79
2023-05-10T21:15:33.789Z,13.77
2023-05-10T21:18:00.908Z,13.76
2023-05-10T21:20:28.165Z,13.75
2023-05-10T21:22:55.232Z,13.72
2023-05-10T21:25:23.243Z,13.69
2023-05-10T21:27:50.340Z,13.66
2023-05-10T21:30:18.168Z,13.66
2023-05-10T21:32:45.296Z,13.65
2023-05-10T21:35:12.344Z,13.63
2023-05-10T21:37:39.461Z,13.62
2023-05-10T21:40:06.829Z,13.60
2023-05-10T21:42:33.902Z,13.57
2023-05-10T21:45:01.153Z,13.55
2023-05-10T21:47:28.487Z,13.52
2023-05-10T21:49:55.659Z,13.51
2023-05-10T21:52:22.801Z,13.49
2023-05-10T21:54:50.004Z,13.47
2023-05-10T21:57:16.966Z,13.46
2023-05-10T21:59:44.041Z,13.43
2023-05-10T22:02:11.211Z,13.42
2023-05-10T22:04:38.383Z,13.41
2023-05-10T22:07:05.713Z,13.39
2023-05-10T22:09:32.797Z,13.37
2023-05-10T22:11:59.836Z,13.35
2023-05-10T22:14:27.003Z,13.34
2023-05-10T22:16:54.109Z,13.30
2023-05-10T22:19:21.282Z,13.27
2023-05-10T22:21:48.372Z,13.24
2023-05-10T22:24:15.471Z,13.20
2023-05-10T22:26:42.435Z,13.19
2023-05-10T22:29:09.425Z,13.17
2023-05-10T22:31:36.640Z,13.15
2023-05-10T22:34:04.142Z,13.12
2023-05-10T22:36:31.751Z,13.11
2023-05-10T22:38:58.762Z,13.10
2023-05-10T22:41:25.758Z,13.09
2023-05-10T22:43:52.840Z,13.07
2023-05-10T22:46:19.912Z,13.05
2023-05-10T22:48:47.164Z,13.02
2023-05-10T22:51:14.321Z,13.01
2023-05-10T22:53:41.619Z,12.99
2023-05-10T22:56:08.938Z,12.99
2023-05-10T22:58:36.101Z,13.00
2023-05-10T23:01:03.385Z,13.00
2023-05-10T23:03:30.785Z,12.97
2023-05-10T23:05:58.054Z,12.94
2023-05-10T23:08:25.397Z,12.92
2023-05-10T23:10:52.770Z,12.88
2023-05-10T23:13:21.196Z,12.87
2023-05-10T23:15:48.506Z,12.85
2023-05-10T23:18:15.836Z,12.85
2023-05-10T23:20:43.363Z,12.84
2023-05-10T23:23:11.404Z,12.81
2023-05-10T23:25:38.743Z,12.80
2023-05-10T23:28:05.967Z,12.78
2023-05-10T23:30:33.182Z,12.76
2023-05-10T23:33:00.479Z,12.75
2023-05-10T23:35:27.773Z,12.73
2023-05-10T23:37:55.372Z,12.69
2023-05-10T23:40:22.731Z,12.68
2023-05-10T23:42:49.978Z,12.68
2023-05-10T23:45:17.311Z,12.67
2023-05-10T23:47:44.620Z,12.66
2023-05-10T23:50:11.917Z,12.64
2023-05-10T23:52:39.129Z,12.62
2023-05-10T23:55:07.144Z,12.60
2023-05-10T23:57:34.249Z,12.58
